Kushiro, Japan

10:35 AM JST on September 22, 2014 (GMT +0900)
Kushiro | Change Station
CLOSE
Current Station
Airport
Location: Kushiro Airport,
Elevation: 322 ft
Nearby Weather Stations

Elev 322 ft 43.04 °N, 144.19 °E | Updated 35 minutes ago

Partly Cloudy
Partly Cloudy
66 °F
Feels Like 66 °F
N
5
Wind Variable Wind from South

Today
High -- | Low -- °F
--% Chance of Precip.
Yesterday
High -- | Low -- °F
Precip. -- in
5:09 AM 5:20 PM
Waning Crescent, 4% visible
Pressure 29.92 in
Visibility 6.2 miles
Clouds Few 4000 ft
Dew Point 48 °F
Humidity 52%
Rainfall 0.00 in
Snow Depth Not available.
UV 5 out of 12
Pollen Not available.
Air Quality Not available.
Flu Activity Not available.
METAR RJCK 220100Z 18004KT 110V280 9999 FEW040 19/09 Q1013

More Conditions Fewer Conditions

Pressure 29.92 in
Visibility 6.2 miles
Clouds Few 4000 ft
Dew Point 48 °F
Humidity 52%
Rainfall 0.00 in
Snow Depth Not available.
UV 5 out of 12
Pollen Not available.
Air Quality Not available.
Flu Activity Not available.
METAR RJCK 220100Z 18004KT 110V280 9999 FEW040 19/09 Q1013

More Conditions Fewer Conditions

10-Day Weather Forecast

Almanac

Astronomy

Sep. 22, 2014 Rise Set
Actual Time 5:09 AM JST 5:20 PM JST
Civil Twilight 4:40 AM JST 5:49 PM JST
Nautical Twilight 4:07 AM JST 6:22 PM JST
Astronomical Twilight 3:33 AM JST 6:56 PM JST
Moon 2:59 AM JST 4:09 PM JST
Length of Visible Light 13h 08m
Length of Day
12h 11m
Tomorrow will be 2m 54s shorter.
Waning Crescent, 4% of the Moon is Illuminated
Sep 21
Waning Crescent
Sep 24
New
Oct 1
First Quarter
Oct 8
Full
Oct 15
Last Quarter

Yesterday's Extremes

Country Highs Country Lows

Community

WunderPhotos

Upload Photos

1,755,346 photos uploaded!

WunderBlogs® & News

Nearby

Snow Depth

Not available.

Earthquake Activity

City Distance Mag. Time & Date
No recent earthquake activity has been reported nearby.
Minimum magnitude displayed is 2.5.

Coastal Water Temperatures

Place Temperature
No Stations Reporting

Nearby Weather Stations